Terminal Aerodrome Forecast
Issued by NWS Knoxville/Tri Cities, TN

Current Version | Previous Version | Text Only | Print | Product List | Glossary On
Versions: 1 2 3 4 5 6 7 8 9 10 11 12 13 14 15 16 17 18 19 20 21 22 23 24 25 26 27 28 29 30 31 32 33 34 35 36 37 38 39 40 41 42 43 44 45 46 47
072
FTUS44 KMRX 112322
TAFTYS
TAF
KTYS 112322Z 1200/1224 VRB03KT P6SM SCT050
     FM120600 03003KT P6SM OVC050
     FM121300 22003KT 4SM -SN BR OVC010
     FM121800 25007KT 6SM -RASN BR OVC010=

USA.gov is the U.S. government's official web portal to all federal, state and local government web resources and services.